sensor_id;sensor_type;location;lat;lon;timestamp;P1;durP1;ratioP1;P2;durP2;ratioP2
59978;SDS011;45839;44.882;20.650;2023-04-24T00:00:58;5.22;;;2.70;;
59978;SDS011;45839;44.882;20.650;2023-04-24T00:03:26;6.07;;;2.83;;
59978;SDS011;45839;44.882;20.650;2023-04-24T00:05:53;5.55;;;2.90;;
59978;SDS011;45839;44.882;20.650;2023-04-24T00:08:19;7.28;;;2.90;;
59978;SDS011;45839;44.882;20.650;2023-04-24T00:10:46;5.72;;;3.00;;
59978;SDS011;45839;44.882;20.650;2023-04-24T00:13:12;5.97;;;2.83;;
59978;SDS011;45839;44.882;20.650;2023-04-24T00:15:38;5.80;;;2.90;;
59978;SDS011;45839;44.882;20.650;2023-04-24T00:18:04;6.70;;;2.80;;
59978;SDS011;45839;44.882;20.650;2023-04-24T00:20:30;5.25;;;2.53;;
59978;SDS011;45839;44.882;20.650;2023-04-24T00:23:00;6.15;;;3.05;;
59978;SDS011;45839;44.882;20.650;2023-04-24T00:25:26;6.45;;;3.10;;
59978;SDS011;45839;44.882;20.650;2023-04-24T00:27:52;5.90;;;2.83;;
59978;SDS011;45839;44.882;20.650;2023-04-24T00:30:18;5.65;;;2.60;;
59978;SDS011;45839;44.882;20.650;2023-04-24T00:32:44;5.50;;;2.85;;
59978;SDS011;45839;44.882;20.650;2023-04-24T00:35:10;6.55;;;2.80;;
59978;SDS011;45839;44.882;20.650;2023-04-24T00:37:36;6.03;;;2.80;;
59978;SDS011;45839;44.882;20.650;2023-04-24T00:40:03;6.47;;;3.00;;
59978;SDS011;45839;44.882;20.650;2023-04-24T00:42:29;6.20;;;2.90;;
59978;SDS011;45839;44.882;20.650;2023-04-24T00:44:55;5.45;;;2.83;;
59978;SDS011;45839;44.882;20.650;2023-04-24T00:47:22;6.22;;;3.00;;
59978;SDS011;45839;44.882;20.650;2023-04-24T00:49:49;7.10;;;2.85;;
59978;SDS011;45839;44.882;20.650;2023-04-24T00:52:15;7.03;;;3.10;;
59978;SDS011;45839;44.882;20.650;2023-04-24T00:54:43;6.53;;;3.10;;
59978;SDS011;45839;44.882;20.650;2023-04-24T00:57:10;5.90;;;2.97;;
59978;SDS011;45839;44.882;20.650;2023-04-24T00:59:36;6.68;;;2.83;;
59978;SDS011;45839;44.882;20.650;2023-04-24T01:02:02;5.60;;;2.75;;
59978;SDS011;45839;44.882;20.650;2023-04-24T01:04:28;6.60;;;3.22;;
59978;SDS011;45839;44.882;20.650;2023-04-24T01:06:54;6.75;;;3.03;;
59978;SDS011;45839;44.882;20.650;2023-04-24T01:09:21;9.25;;;3.28;;
59978;SDS011;45839;44.882;20.650;2023-04-24T01:11:49;6.22;;;3.45;;
59978;SDS011;45839;44.882;20.650;2023-04-24T01:14:15;5.82;;;3.00;;
59978;SDS011;45839;44.882;20.650;2023-04-24T01:16:41;5.40;;;2.83;;
59978;SDS011;45839;44.882;20.650;2023-04-24T01:19:07;8.18;;;3.22;;
59978;SDS011;45839;44.882;20.650;2023-04-24T01:21:34;6.80;;;3.35;;
59978;SDS011;45839;44.882;20.650;2023-04-24T01:24:02;5.57;;;2.63;;
59978;SDS011;45839;44.882;20.650;2023-04-24T01:26:28;5.47;;;2.60;;
59978;SDS011;45839;44.882;20.650;2023-04-24T01:28:54;5.13;;;2.80;;
59978;SDS011;45839;44.882;20.650;2023-04-24T01:31:20;6.35;;;2.95;;
59978;SDS011;45839;44.882;20.650;2023-04-24T01:33:46;5.88;;;3.05;;
59978;SDS011;45839;44.882;20.650;2023-04-24T01:36:12;6.50;;;2.80;;
59978;SDS011;45839;44.882;20.650;2023-04-24T01:38:39;6.03;;;2.97;;
59978;SDS011;45839;44.882;20.650;2023-04-24T01:41:05;5.15;;;2.88;;
59978;SDS011;45839;44.882;20.650;2023-04-24T01:43:31;6.57;;;2.92;;
59978;SDS011;45839;44.882;20.650;2023-04-24T01:45:58;6.15;;;2.72;;
59978;SDS011;45839;44.882;20.650;2023-04-24T01:48:24;5.72;;;3.28;;
59978;SDS011;45839;44.882;20.650;2023-04-24T01:50:50;5.43;;;2.58;;
59978;SDS011;45839;44.882;20.650;2023-04-24T01:53:16;6.18;;;3.08;;
59978;SDS011;45839;44.882;20.650;2023-04-24T01:55:42;5.18;;;2.80;;
59978;SDS011;45839;44.882;20.650;2023-04-24T01:58:08;5.50;;;2.72;;
59978;SDS011;45839;44.882;20.650;2023-04-24T02:00:34;8.02;;;2.90;;
59978;SDS011;45839;44.882;20.650;2023-04-24T02:03:01;5.05;;;2.90;;
59978;SDS011;45839;44.882;20.650;2023-04-24T02:05:27;5.68;;;2.90;;
59978;SDS011;45839;44.882;20.650;2023-04-24T02:07:53;4.70;;;2.80;;
59978;SDS011;45839;44.882;20.650;2023-04-24T02:10:20;5.80;;;2.88;;
59978;SDS011;45839;44.882;20.650;2023-04-24T02:12:46;6.50;;;3.00;;
59978;SDS011;45839;44.882;20.650;2023-04-24T02:15:12;7.68;;;2.80;;
59978;SDS011;45839;44.882;20.650;2023-04-24T02:17:38;8.73;;;3.50;;
59978;SDS011;45839;44.882;20.650;2023-04-24T02:20:05;6.82;;;2.90;;
59978;SDS011;45839;44.882;20.650;2023-04-24T02:22:31;6.13;;;3.08;;
59978;SDS011;45839;44.882;20.650;2023-04-24T02:24:57;6.60;;;3.20;;
59978;SDS011;45839;44.882;20.650;2023-04-24T02:27:23;5.80;;;2.88;;
59978;SDS011;45839;44.882;20.650;2023-04-24T02:29:49;5.72;;;3.00;;
59978;SDS011;45839;44.882;20.650;2023-04-24T02:32:15;5.88;;;2.75;;
59978;SDS011;45839;44.882;20.650;2023-04-24T02:34:41;5.05;;;3.00;;
59978;SDS011;45839;44.882;20.650;2023-04-24T02:37:07;5.68;;;3.10;;
59978;SDS011;45839;44.882;20.650;2023-04-24T02:39:33;6.97;;;2.95;;
59978;SDS011;45839;44.882;20.650;2023-04-24T02:41:59;6.25;;;3.25;;
59978;SDS011;45839;44.882;20.650;2023-04-24T02:44:26;6.55;;;3.10;;
59978;SDS011;45839;44.882;20.650;2023-04-24T02:46:52;5.20;;;2.83;;
59978;SDS011;45839;44.882;20.650;2023-04-24T02:49:18;7.10;;;3.15;;
59978;SDS011;45839;44.882;20.650;2023-04-24T02:51:44;6.97;;;3.20;;
59978;SDS011;45839;44.882;20.650;2023-04-24T02:54:10;5.10;;;2.92;;
59978;SDS011;45839;44.882;20.650;2023-04-24T02:56:36;7.13;;;2.80;;
59978;SDS011;45839;44.882;20.650;2023-04-24T02:59:02;7.07;;;3.10;;
59978;SDS011;45839;44.882;20.650;2023-04-24T03:01:29;5.45;;;3.10;;
59978;SDS011;45839;44.882;20.650;2023-04-24T03:03:55;7.97;;;3.10;;
59978;SDS011;45839;44.882;20.650;2023-04-24T03:06:21;6.93;;;2.92;;
59978;SDS011;45839;44.882;20.650;2023-04-24T03:08:47;6.40;;;3.00;;
59978;SDS011;45839;44.882;20.650;2023-04-24T03:11:13;5.40;;;2.78;;
59978;SDS011;45839;44.882;20.650;2023-04-24T03:13:39;5.40;;;3.00;;
59978;SDS011;45839;44.882;20.650;2023-04-24T03:16:05;6.28;;;2.97;;
59978;SDS011;45839;44.882;20.650;2023-04-24T03:18:31;5.85;;;3.05;;
59978;SDS011;45839;44.882;20.650;2023-04-24T03:20:57;5.35;;;3.10;;
59978;SDS011;45839;44.882;20.650;2023-04-24T03:23:24;6.40;;;2.90;;
59978;SDS011;45839;44.882;20.650;2023-04-24T03:25:50;5.85;;;2.78;;
59978;SDS011;45839;44.882;20.650;2023-04-24T03:28:16;5.75;;;2.53;;
59978;SDS011;45839;44.882;20.650;2023-04-24T03:30:42;5.43;;;2.67;;
59978;SDS011;45839;44.882;20.650;2023-04-24T03:33:08;4.90;;;2.72;;
59978;SDS011;45839;44.882;20.650;2023-04-24T03:35:34;6.82;;;3.17;;
59978;SDS011;45839;44.882;20.650;2023-04-24T03:38:01;6.95;;;2.58;;
59978;SDS011;45839;44.882;20.650;2023-04-24T03:40:29;6.80;;;2.90;;
59978;SDS011;45839;44.882;20.650;2023-04-24T03:42:55;6.10;;;3.00;;
59978;SDS011;45839;44.882;20.650;2023-04-24T03:45:21;6.38;;;3.13;;
59978;SDS011;45839;44.882;20.650;2023-04-24T03:47:47;6.50;;;3.25;;
59978;SDS011;45839;44.882;20.650;2023-04-24T03:50:13;5.65;;;2.95;;
59978;SDS011;45839;44.882;20.650;2023-04-24T03:52:39;6.07;;;3.10;;
59978;SDS011;45839;44.882;20.650;2023-04-24T03:55:06;6.30;;;3.13;;
59978;SDS011;45839;44.882;20.650;2023-04-24T03:57:32;7.80;;;3.10;;
59978;SDS011;45839;44.882;20.650;2023-04-24T03:59:58;6.57;;;3.08;;
59978;SDS011;45839;44.882;20.650;2023-04-24T04:02:24;7.57;;;3.60;;
59978;SDS011;45839;44.882;20.650;2023-04-24T04:04:50;8.45;;;3.15;;
59978;SDS011;45839;44.882;20.650;2023-04-24T04:07:17;7.65;;;3.40;;
59978;SDS011;45839;44.882;20.650;2023-04-24T04:09:43;6.40;;;3.50;;
59978;SDS011;45839;44.882;20.650;2023-04-24T04:12:09;5.90;;;3.17;;
59978;SDS011;45839;44.882;20.650;2023-04-24T04:14:35;6.47;;;2.90;;
59978;SDS011;45839;44.882;20.650;2023-04-24T04:17:01;6.00;;;3.00;;
59978;SDS011;45839;44.882;20.650;2023-04-24T04:19:27;5.40;;;2.92;;
59978;SDS011;45839;44.882;20.650;2023-04-24T04:21:53;6.95;;;3.53;;
59978;SDS011;45839;44.882;20.650;2023-04-24T04:24:21;7.63;;;3.60;;
59978;SDS011;45839;44.882;20.650;2023-04-24T04:26:47;6.55;;;3.55;;
59978;SDS011;45839;44.882;20.650;2023-04-24T04:29:16;7.57;;;3.35;;
59978;SDS011;45839;44.882;20.650;2023-04-24T04:31:43;5.97;;;3.30;;
59978;SDS011;45839;44.882;20.650;2023-04-24T04:34:09;6.60;;;3.40;;
59978;SDS011;45839;44.882;20.650;2023-04-24T04:36:36;6.93;;;3.17;;
59978;SDS011;45839;44.882;20.650;2023-04-24T04:39:05;6.60;;;3.30;;
59978;SDS011;45839;44.882;20.650;2023-04-24T04:41:31;5.57;;;3.00;;
59978;SDS011;45839;44.882;20.650;2023-04-24T04:44:00;6.35;;;3.25;;
59978;SDS011;45839;44.882;20.650;2023-04-24T04:46:26;5.90;;;3.30;;
59978;SDS011;45839;44.882;20.650;2023-04-24T04:48:53;5.85;;;3.10;;
59978;SDS011;45839;44.882;20.650;2023-04-24T04:51:19;11.05;;;4.10;;
59978;SDS011;45839;44.882;20.650;2023-04-24T04:53:45;7.32;;;3.22;;
59978;SDS011;45839;44.882;20.650;2023-04-24T04:56:11;8.05;;;3.50;;
59978;SDS011;45839;44.882;20.650;2023-04-24T04:58:37;5.45;;;3.13;;
59978;SDS011;45839;44.882;20.650;2023-04-24T05:01:03;5.50;;;3.10;;
59978;SDS011;45839;44.882;20.650;2023-04-24T05:03:29;6.22;;;3.30;;
59978;SDS011;45839;44.882;20.650;2023-04-24T05:05:57;5.70;;;3.03;;
59978;SDS011;45839;44.882;20.650;2023-04-24T05:08:23;7.43;;;4.05;;
59978;SDS011;45839;44.882;20.650;2023-04-24T05:10:49;6.20;;;3.72;;
59978;SDS011;45839;44.882;20.650;2023-04-24T05:13:15;6.13;;;3.35;;
59978;SDS011;45839;44.882;20.650;2023-04-24T05:15:41;5.78;;;3.13;;
59978;SDS011;45839;44.882;20.650;2023-04-24T05:18:07;6.10;;;3.20;;
59978;SDS011;45839;44.882;20.650;2023-04-24T05:20:33;6.50;;;3.10;;
59978;SDS011;45839;44.882;20.650;2023-04-24T05:22:59;5.68;;;3.00;;
59978;SDS011;45839;44.882;20.650;2023-04-24T05:25:25;8.23;;;3.25;;
59978;SDS011;45839;44.882;20.650;2023-04-24T05:27:51;6.75;;;3.35;;
59978;SDS011;45839;44.882;20.650;2023-04-24T05:30:18;7.63;;;3.88;;
59978;SDS011;45839;44.882;20.650;2023-04-24T05:32:44;7.18;;;3.60;;
59978;SDS011;45839;44.882;20.650;2023-04-24T05:35:11;6.38;;;3.80;;
59978;SDS011;45839;44.882;20.650;2023-04-24T05:37:37;7.93;;;4.30;;
59978;SDS011;45839;44.882;20.650;2023-04-24T05:40:03;10.85;;;3.90;;
59978;SDS011;45839;44.882;20.650;2023-04-24T05:42:30;6.93;;;4.28;;
59978;SDS011;45839;44.882;20.650;2023-04-24T05:44:56;9.38;;;4.60;;
59978;SDS011;45839;44.882;20.650;2023-04-24T05:47:22;7.13;;;4.25;;
59978;SDS011;45839;44.882;20.650;2023-04-24T05:49:48;8.50;;;4.30;;
59978;SDS011;45839;44.882;20.650;2023-04-24T05:52:14;8.23;;;3.88;;
59978;SDS011;45839;44.882;20.650;2023-04-24T05:54:40;6.78;;;4.15;;
59978;SDS011;45839;44.882;20.650;2023-04-24T05:57:06;6.75;;;4.20;;
59978;SDS011;45839;44.882;20.650;2023-04-24T05:59:33;9.88;;;5.03;;
59978;SDS011;45839;44.882;20.650;2023-04-24T06:01:59;8.05;;;4.40;;
59978;SDS011;45839;44.882;20.650;2023-04-24T06:04:25;8.02;;;4.00;;
59978;SDS011;45839;44.882;20.650;2023-04-24T06:06:51;7.28;;;3.80;;
59978;SDS011;45839;44.882;20.650;2023-04-24T06:09:21;7.47;;;3.78;;
59978;SDS011;45839;44.882;20.650;2023-04-24T06:11:47;6.22;;;3.60;;
59978;SDS011;45839;44.882;20.650;2023-04-24T06:14:14;7.38;;;3.88;;
59978;SDS011;45839;44.882;20.650;2023-04-24T06:16:41;7.00;;;3.67;;
59978;SDS011;45839;44.882;20.650;2023-04-24T06:19:08;6.05;;;3.95;;
59978;SDS011;45839;44.882;20.650;2023-04-24T06:21:34;6.40;;;4.00;;
59978;SDS011;45839;44.882;20.650;2023-04-24T06:24:00;7.90;;;4.07;;
59978;SDS011;45839;44.882;20.650;2023-04-24T06:26:26;7.57;;;4.20;;
59978;SDS011;45839;44.882;20.650;2023-04-24T06:28:53;8.48;;;3.72;;
59978;SDS011;45839;44.882;20.650;2023-04-24T06:31:19;5.60;;;3.47;;
59978;SDS011;45839;44.882;20.650;2023-04-24T06:33:45;5.90;;;3.70;;
59978;SDS011;45839;44.882;20.650;2023-04-24T06:36:12;5.68;;;3.47;;
59978;SDS011;45839;44.882;20.650;2023-04-24T06:38:38;8.30;;;3.53;;
59978;SDS011;45839;44.882;20.650;2023-04-24T06:41:04;6.72;;;3.90;;
59978;SDS011;45839;44.882;20.650;2023-04-24T06:43:31;6.28;;;3.60;;
59978;SDS011;45839;44.882;20.650;2023-04-24T06:45:57;7.28;;;4.05;;
59978;SDS011;45839;44.882;20.650;2023-04-24T06:48:24;6.13;;;3.92;;
59978;SDS011;45839;44.882;20.650;2023-04-24T06:50:50;6.55;;;3.97;;
59978;SDS011;45839;44.882;20.650;2023-04-24T06:53:16;6.10;;;3.67;;
59978;SDS011;45839;44.882;20.650;2023-04-24T06:55:42;5.85;;;3.67;;
59978;SDS011;45839;44.882;20.650;2023-04-24T06:58:11;5.63;;;3.60;;
59978;SDS011;45839;44.882;20.650;2023-04-24T07:00:37;6.10;;;3.35;;
59978;SDS011;45839;44.882;20.650;2023-04-24T07:03:03;6.00;;;3.70;;
59978;SDS011;45839;44.882;20.650;2023-04-24T07:05:32;5.72;;;3.70;;
59978;SDS011;45839;44.882;20.650;2023-04-24T07:08:00;8.88;;;3.83;;
59978;SDS011;45839;44.882;20.650;2023-04-24T07:10:26;6.93;;;3.33;;
59978;SDS011;45839;44.882;20.650;2023-04-24T07:12:53;6.75;;;3.65;;
59978;SDS011;45839;44.882;20.650;2023-04-24T07:15:21;5.63;;;3.47;;
59978;SDS011;45839;44.882;20.650;2023-04-24T07:17:47;7.95;;;3.75;;
59978;SDS011;45839;44.882;20.650;2023-04-24T07:20:13;5.50;;;3.35;;
59978;SDS011;45839;44.882;20.650;2023-04-24T07:22:39;7.75;;;3.50;;
59978;SDS011;45839;44.882;20.650;2023-04-24T07:25:06;6.95;;;4.07;;
59978;SDS011;45839;44.882;20.650;2023-04-24T07:27:33;5.82;;;3.63;;
59978;SDS011;45839;44.882;20.650;2023-04-24T07:29:59;6.43;;;3.53;;
59978;SDS011;45839;44.882;20.650;2023-04-24T07:32:26;26.05;;;21.33;;
59978;SDS011;45839;44.882;20.650;2023-04-24T07:34:52;68.28;;;59.28;;
59978;SDS011;45839;44.882;20.650;2023-04-24T07:37:18;69.03;;;57.30;;
59978;SDS011;45839;44.882;20.650;2023-04-24T07:39:44;57.45;;;48.92;;
59978;SDS011;45839;44.882;20.650;2023-04-24T07:42:10;13.35;;;10.18;;
59978;SDS011;45839;44.882;20.650;2023-04-24T07:44:36;67.13;;;58.50;;
59978;SDS011;45839;44.882;20.650;2023-04-24T07:47:02;34.72;;;31.00;;
59978;SDS011;45839;44.882;20.650;2023-04-24T07:49:28;64.47;;;55.90;;
59978;SDS011;45839;44.882;20.650;2023-04-24T07:51:54;40.83;;;35.80;;
59978;SDS011;45839;44.882;20.650;2023-04-24T07:54:20;50.20;;;44.70;;
59978;SDS011;45839;44.882;20.650;2023-04-24T07:56:46;33.22;;;28.67;;
59978;SDS011;45839;44.882;20.650;2023-04-24T07:59:12;12.48;;;8.43;;
59978;SDS011;45839;44.882;20.650;2023-04-24T08:01:38;24.50;;;20.50;;
59978;SDS011;45839;44.882;20.650;2023-04-24T08:04:04;51.67;;;46.13;;
59978;SDS011;45839;44.882;20.650;2023-04-24T08:06:30;25.73;;;22.95;;
59978;SDS011;45839;44.882;20.650;2023-04-24T08:08:57;15.52;;;10.23;;
59978;SDS011;45839;44.882;20.650;2023-04-24T08:11:24;7.70;;;5.65;;
59978;SDS011;45839;44.882;20.650;2023-04-24T08:13:51;9.00;;;6.15;;
59978;SDS011;45839;44.882;20.650;2023-04-24T08:16:17;44.05;;;39.00;;
59978;SDS011;45839;44.882;20.650;2023-04-24T08:18:43;35.00;;;31.30;;
59978;SDS011;45839;44.882;20.650;2023-04-24T08:21:09;12.75;;;10.00;;
59978;SDS011;45839;44.882;20.650;2023-04-24T08:23:36;26.75;;;23.88;;
59978;SDS011;45839;44.882;20.650;2023-04-24T08:26:02;10.45;;;7.55;;
59978;SDS011;45839;44.882;20.650;2023-04-24T08:28:28;18.48;;;15.90;;
59978;SDS011;45839;44.882;20.650;2023-04-24T08:30:54;10.48;;;6.13;;
59978;SDS011;45839;44.882;20.650;2023-04-24T08:33:21;8.55;;;6.47;;
59978;SDS011;45839;44.882;20.650;2023-04-24T08:35:47;7.63;;;4.10;;
59978;SDS011;45839;44.882;20.650;2023-04-24T08:38:13;11.52;;;8.13;;
59978;SDS011;45839;44.882;20.650;2023-04-24T08:40:39;6.63;;;3.85;;
59978;SDS011;45839;44.882;20.650;2023-04-24T08:43:06;8.55;;;4.10;;
59978;SDS011;45839;44.882;20.650;2023-04-24T08:45:32;5.93;;;3.60;;
59978;SDS011;45839;44.882;20.650;2023-04-24T08:47:58;6.00;;;3.55;;
59978;SDS011;45839;44.882;20.650;2023-04-24T08:50:24;6.95;;;3.88;;
59978;SDS011;45839;44.882;20.650;2023-04-24T08:52:51;5.43;;;3.17;;
59978;SDS011;45839;44.882;20.650;2023-04-24T08:55:22;10.95;;;7.07;;
59978;SDS011;45839;44.882;20.650;2023-04-24T08:57:50;15.02;;;9.82;;
59978;SDS011;45839;44.882;20.650;2023-04-24T09:00:18;6.22;;;4.00;;
59978;SDS011;45839;44.882;20.650;2023-04-24T09:02:48;6.50;;;3.67;;
59978;SDS011;45839;44.882;20.650;2023-04-24T09:05:18;7.10;;;4.75;;
59978;SDS011;45839;44.882;20.650;2023-04-24T09:07:49;7.68;;;4.10;;
59978;SDS011;45839;44.882;20.650;2023-04-24T09:10:23;8.45;;;5.13;;
59978;SDS011;45839;44.882;20.650;2023-04-24T09:12:52;9.25;;;4.43;;
59978;SDS011;45839;44.882;20.650;2023-04-24T09:15:20;7.93;;;4.50;;
59978;SDS011;45839;44.882;20.650;2023-04-24T09:17:46;7.85;;;4.20;;
59978;SDS011;45839;44.882;20.650;2023-04-24T09:20:13;10.35;;;6.05;;
59978;SDS011;45839;44.882;20.650;2023-04-24T09:22:39;9.80;;;5.20;;
59978;SDS011;45839;44.882;20.650;2023-04-24T09:25:08;9.10;;;4.82;;
59978;SDS011;45839;44.882;20.650;2023-04-24T09:27:36;9.40;;;5.35;;
59978;SDS011;45839;44.882;20.650;2023-04-24T09:30:06;9.93;;;5.45;;
59978;SDS011;45839;44.882;20.650;2023-04-24T09:32:33;11.48;;;8.75;;
59978;SDS011;45839;44.882;20.650;2023-04-24T09:35:09;8.25;;;5.88;;
59978;SDS011;45839;44.882;20.650;2023-04-24T09:37:40;8.75;;;4.63;;
59978;SDS011;45839;44.882;20.650;2023-04-24T09:40:16;9.45;;;6.72;;
59978;SDS011;45839;44.882;20.650;2023-04-24T09:42:43;10.85;;;6.47;;
59978;SDS011;45839;44.882;20.650;2023-04-24T09:45:10;9.10;;;5.40;;
59978;SDS011;45839;44.882;20.650;2023-04-24T09:47:40;8.98;;;5.32;;
59978;SDS011;45839;44.882;20.650;2023-04-24T09:50:13;7.68;;;5.32;;
59978;SDS011;45839;44.882;20.650;2023-04-24T09:52:40;25.65;;;21.08;;
59978;SDS011;45839;44.882;20.650;2023-04-24T09:55:18;18.13;;;14.15;;
59978;SDS011;45839;44.882;20.650;2023-04-24T10:00:18;10.27;;;6.47;;
59978;SDS011;45839;44.882;20.650;2023-04-24T10:02:49;9.40;;;4.60;;
59978;SDS011;45839;44.882;20.650;2023-04-24T10:05:15;8.13;;;4.60;;
59978;SDS011;45839;44.882;20.650;2023-04-24T10:07:41;7.03;;;4.50;;
59978;SDS011;45839;44.882;20.650;2023-04-24T10:10:09;9.25;;;4.65;;
59978;SDS011;45839;44.882;20.650;2023-04-24T10:12:35;6.70;;;4.30;;
59978;SDS011;45839;44.882;20.650;2023-04-24T10:15:02;8.13;;;4.32;;
59978;SDS011;45839;44.882;20.650;2023-04-24T10:17:28;7.43;;;4.40;;
59978;SDS011;45839;44.882;20.650;2023-04-24T10:19:54;7.22;;;4.30;;
59978;SDS011;45839;44.882;20.650;2023-04-24T10:22:20;7.88;;;4.50;;
59978;SDS011;45839;44.882;20.650;2023-04-24T10:24:47;7.78;;;4.07;;
59978;SDS011;45839;44.882;20.650;2023-04-24T10:27:14;9.40;;;4.45;;
59978;SDS011;45839;44.882;20.650;2023-04-24T10:29:41;6.53;;;4.30;;
59978;SDS011;45839;44.882;20.650;2023-04-24T10:32:08;7.68;;;4.88;;
59978;SDS011;45839;44.882;20.650;2023-04-24T10:34:35;7.38;;;4.75;;
59978;SDS011;45839;44.882;20.650;2023-04-24T10:37:01;6.95;;;4.45;;
59978;SDS011;45839;44.882;20.650;2023-04-24T10:39:28;10.70;;;5.70;;
59978;SDS011;45839;44.882;20.650;2023-04-24T10:41:55;13.82;;;8.65;;
59978;SDS011;45839;44.882;20.650;2023-04-24T10:44:22;45.17;;;40.13;;
59978;SDS011;45839;44.882;20.650;2023-04-24T10:46:52;35.75;;;31.95;;
59978;SDS011;45839;44.882;20.650;2023-04-24T10:49:19;12.98;;;9.23;;
59978;SDS011;45839;44.882;20.650;2023-04-24T10:51:53;7.85;;;6.18;;
59978;SDS011;45839;44.882;20.650;2023-04-24T10:54:26;10.82;;;6.90;;
59978;SDS011;45839;44.882;20.650;2023-04-24T10:56:53;13.27;;;10.63;;
59978;SDS011;45839;44.882;20.650;2023-04-24T10:59:29;15.15;;;12.88;;
59978;SDS011;45839;44.882;20.650;2023-04-24T11:02:02;10.75;;;7.93;;
59978;SDS011;45839;44.882;20.650;2023-04-24T11:04:32;9.35;;;6.65;;
59978;SDS011;45839;44.882;20.650;2023-04-24T11:07:04;16.33;;;13.27;;
59978;SDS011;45839;44.882;20.650;2023-04-24T11:09:36;13.65;;;10.27;;
59978;SDS011;45839;44.882;20.650;2023-04-24T11:12:06;10.98;;;8.15;;
59978;SDS011;45839;44.882;20.650;2023-04-24T11:20:07;9.55;;;7.35;;
59978;SDS011;45839;44.882;20.650;2023-04-24T11:22:34;9.32;;;6.85;;
59978;SDS011;45839;44.882;20.650;2023-04-24T11:25:01;9.98;;;7.68;;
59978;SDS011;45839;44.882;20.650;2023-04-24T11:27:29;9.38;;;6.60;;
59978;SDS011;45839;44.882;20.650;2023-04-24T11:34:52;19.83;;;17.73;;
59978;SDS011;45839;44.882;20.650;2023-04-24T11:37:18;32.20;;;28.75;;
59978;SDS011;45839;44.882;20.650;2023-04-24T11:39:44;16.75;;;14.05;;
59978;SDS011;45839;44.882;20.650;2023-04-24T11:42:13;13.23;;;11.15;;
59978;SDS011;45839;44.882;20.650;2023-04-24T11:44:41;9.48;;;7.03;;
59978;SDS011;45839;44.882;20.650;2023-04-24T11:47:07;12.10;;;9.85;;
59978;SDS011;45839;44.882;20.650;2023-04-24T11:49:36;17.75;;;14.95;;
59978;SDS011;45839;44.882;20.650;2023-04-24T11:52:02;9.43;;;7.28;;
59978;SDS011;45839;44.882;20.650;2023-04-24T11:54:28;8.68;;;5.70;;
59978;SDS011;45839;44.882;20.650;2023-04-24T11:56:55;10.07;;;6.00;;
59978;SDS011;45839;44.882;20.650;2023-04-24T11:59:21;9.18;;;6.80;;
59978;SDS011;45839;44.882;20.650;2023-04-24T12:01:48;8.00;;;5.80;;
59978;SDS011;45839;44.882;20.650;2023-04-24T12:04:15;8.75;;;6.47;;
59978;SDS011;45839;44.882;20.650;2023-04-24T12:07:00;7.63;;;5.43;;
59978;SDS011;45839;44.882;20.650;2023-04-24T12:09:26;9.45;;;5.65;;
59978;SDS011;45839;44.882;20.650;2023-04-24T12:11:56;11.65;;;6.13;;
59978;SDS011;45839;44.882;20.650;2023-04-24T12:14:22;9.45;;;5.45;;
59978;SDS011;45839;44.882;20.650;2023-04-24T12:16:49;10.73;;;5.82;;
59978;SDS011;45839;44.882;20.650;2023-04-24T12:19:20;8.70;;;4.88;;
59978;SDS011;45839;44.882;20.650;2023-04-24T12:22:07;7.22;;;4.93;;
59978;SDS011;45839;44.882;20.650;2023-04-24T12:24:33;6.90;;;4.75;;
59978;SDS011;45839;44.882;20.650;2023-04-24T12:26:59;9.18;;;5.97;;
59978;SDS011;45839;44.882;20.650;2023-04-24T12:29:26;7.57;;;5.10;;
59978;SDS011;45839;44.882;20.650;2023-04-24T12:31:52;6.78;;;4.80;;
59978;SDS011;45839;44.882;20.650;2023-04-24T12:34:21;10.38;;;5.30;;
59978;SDS011;45839;44.882;20.650;2023-04-24T12:36:48;7.78;;;4.90;;
59978;SDS011;45839;44.882;20.650;2023-04-24T12:39:15;9.25;;;5.28;;
59978;SDS011;45839;44.882;20.650;2023-04-24T12:44:37;8.02;;;4.97;;
59978;SDS011;45839;44.882;20.650;2023-04-24T12:47:03;9.77;;;6.35;;
59978;SDS011;45839;44.882;20.650;2023-04-24T12:49:30;14.07;;;9.82;;
59978;SDS011;45839;44.882;20.650;2023-04-24T12:51:56;42.25;;;35.88;;
59978;SDS011;45839;44.882;20.650;2023-04-24T12:54:22;15.60;;;9.80;;
59978;SDS011;45839;44.882;20.650;2023-04-24T12:56:48;11.82;;;7.65;;
59978;SDS011;45839;44.882;20.650;2023-04-24T12:59:14;9.65;;;6.82;;
59978;SDS011;45839;44.882;20.650;2023-04-24T13:01:40;10.32;;;6.10;;
59978;SDS011;45839;44.882;20.650;2023-04-24T13:04:07;9.48;;;5.32;;
59978;SDS011;45839;44.882;20.650;2023-04-24T13:06:33;9.60;;;5.93;;
59978;SDS011;45839;44.882;20.650;2023-04-24T13:08:59;16.13;;;7.97;;
59978;SDS011;45839;44.882;20.650;2023-04-24T13:11:25;10.38;;;5.68;;
59978;SDS011;45839;44.882;20.650;2023-04-24T13:13:51;6.80;;;4.30;;
59978;SDS011;45839;44.882;20.650;2023-04-24T13:16:17;6.05;;;3.80;;
59978;SDS011;45839;44.882;20.650;2023-04-24T13:18:43;9.55;;;4.90;;
59978;SDS011;45839;44.882;20.650;2023-04-24T13:21:09;19.08;;;15.00;;
59978;SDS011;45839;44.882;20.650;2023-04-24T13:23:36;9.80;;;5.20;;
59978;SDS011;45839;44.882;20.650;2023-04-24T13:26:02;8.82;;;5.70;;
59978;SDS011;45839;44.882;20.650;2023-04-24T13:28:28;7.38;;;5.25;;
59978;SDS011;45839;44.882;20.650;2023-04-24T13:30:55;22.25;;;19.88;;
59978;SDS011;45839;44.882;20.650;2023-04-24T13:33:21;8.93;;;6.30;;
59978;SDS011;45839;44.882;20.650;2023-04-24T13:35:47;15.00;;;11.00;;
59978;SDS011;45839;44.882;20.650;2023-04-24T13:38:13;13.82;;;8.95;;
59978;SDS011;45839;44.882;20.650;2023-04-24T13:40:39;13.80;;;9.93;;
59978;SDS011;45839;44.882;20.650;2023-04-24T13:43:08;16.05;;;14.00;;
59978;SDS011;45839;44.882;20.650;2023-04-24T13:45:35;18.73;;;15.32;;
59978;SDS011;45839;44.882;20.650;2023-04-24T13:48:01;34.30;;;30.40;;
59978;SDS011;45839;44.882;20.650;2023-04-24T13:50:28;15.20;;;12.52;;
59978;SDS011;45839;44.882;20.650;2023-04-24T13:52:54;13.48;;;9.95;;
59978;SDS011;45839;44.882;20.650;2023-04-24T13:55:21;13.77;;;7.32;;
59978;SDS011;45839;44.882;20.650;2023-04-24T13:57:47;37.63;;;31.08;;
59978;SDS011;45839;44.882;20.650;2023-04-24T14:00:13;21.98;;;18.40;;
59978;SDS011;45839;44.882;20.650;2023-04-24T14:02:40;29.40;;;19.33;;
59978;SDS011;45839;44.882;20.650;2023-04-24T14:05:06;12.95;;;9.50;;
59978;SDS011;45839;44.882;20.650;2023-04-24T14:07:32;21.38;;;17.85;;
59978;SDS011;45839;44.882;20.650;2023-04-24T14:09:58;16.42;;;11.52;;
59978;SDS011;45839;44.882;20.650;2023-04-24T14:12:24;11.48;;;8.52;;
59978;SDS011;45839;44.882;20.650;2023-04-24T14:14:50;8.45;;;5.03;;
59978;SDS011;45839;44.882;20.650;2023-04-24T14:17:17;7.50;;;5.32;;
59978;SDS011;45839;44.882;20.650;2023-04-24T14:19:43;6.35;;;4.57;;
59978;SDS011;45839;44.882;20.650;2023-04-24T14:22:09;10.40;;;6.70;;
59978;SDS011;45839;44.882;20.650;2023-04-24T14:24:35;9.82;;;6.80;;
59978;SDS011;45839;44.882;20.650;2023-04-24T14:27:01;10.30;;;7.50;;
59978;SDS011;45839;44.882;20.650;2023-04-24T14:29:28;11.55;;;7.10;;
59978;SDS011;45839;44.882;20.650;2023-04-24T14:31:54;11.55;;;4.57;;
59978;SDS011;45839;44.882;20.650;2023-04-24T14:34:20;9.02;;;5.32;;
59978;SDS011;45839;44.882;20.650;2023-04-24T14:36:46;14.65;;;8.65;;
59978;SDS011;45839;44.882;20.650;2023-04-24T14:39:12;11.57;;;7.88;;
59978;SDS011;45839;44.882;20.650;2023-04-24T14:41:38;9.13;;;6.43;;